Latest Weather Observations for East Sale

IDV60801

Issued at 3:05 pm EST Wednesday 17 September 2014 (issued every 30 minutes, with the page automatically refreshed every 10 minutes)

About weather observations | Map of weather stations | Latest weather observations for VIC | Other Formats
Station Details ID: 085072 Name: EAST SALE AIRPORT Lat: -38.12 Lon: 147.13 Height: 4.6 m
Data from the previous 72 hours. | See also: Recent months at East Sale
Date/Time
EST
Temp
°C
App
Temp
°C
Dew
Point
Rel
Hum
%
Delta-T
°C
Wind Press
QNH
hPa
Press
MSL
hPa
Rain
since 9 am
mm
Dir
 
Spd
km/h
Gust
km/h
Spd
kts
Gust
kts
17/03:00pm 13.1 3.5 6.1 62 3.3 W 46 61 25 33 1010.9 1010.9 0.8
17/02:40pm 12.3 4.2 5.1 61 3.3 W 37 56 20 30 1010.8 - 0.8
17/02:30pm 12.5 4.3 8.0 74 2.2 W 41 56 22 30 1010.9 - 0.8
17/02:00pm 11.2 3.9 7.2 76 1.9 WSW 35 50 19 27 1011.0 - 0.8
17/01:30pm 10.5 1.6 6.7 77 1.8 WSW 43 65 23 35 1011.1 - 0.8
17/01:10pm 10.4 3.6 7.5 82 1.4 WSW 33 52 18 28 1010.8 - 0.4
17/01:00pm 10.4 3.6 7.9 84 1.2 WSW 33 44 18 24 1010.9 - 0.4
17/12:51pm 10.0 -0.1 7.3 83 1.3 WSW 50 61 27 33 1011.0 - 0.2
17/12:30pm 14.8 4.6 5.0 52 4.6 W 48 67 26 36 1010.3 - 0.0
17/12:00pm 14.2 4.6 4.5 52 4.5 W 44 63 24 34 1010.3 1010.3 0.0
17/11:51am 14.7 5.5 5.4 53 4.4 W 43 61 23 33 1010.5 - 0.0
17/11:30am 14.7 5.4 5.9 55 4.2 W 44 59 24 32 1010.7 - 0.0
17/11:00am 13.9 5.2 5.9 58 3.8 W 41 50 22 27 1011.0 - 0.0
17/10:38am 14.0 7.0 6.0 58 3.8 W 32 54 17 29 1011.2 - 0.0
17/10:30am 13.5 6.6 6.6 63 3.3 W 32 44 17 24 1011.4 - 0.0
17/10:00am 12.8 5.3 6.3 64 3.1 W 35 46 19 25 1011.4 - 0.0
17/09:30am 12.7 5.0 7.3 69 2.6 W 37 46 20 25 1011.4 - 0.0
17/09:00am 12.4 6.9 7.5 72 2.4 W 26 37 14 20 1011.7 1011.7 1.4
17/08:30am 10.7 6.8 6.9 77 1.8 W 17 30 9 16 1011.9 - 1.4
17/08:00am 10.0 6.5 7.3 83 1.3 WSW 15 20 8 11 1012.0 - 1.4
17/07:30am 9.5 5.1 6.7 83 1.3 WSW 19 22 10 12 1011.7 - 1.4
17/07:00am 9.1 5.6 7.0 87 1.0 WNW 15 19 8 10 1011.6 - 1.4
17/06:30am 8.7 4.8 7.0 89 0.8 SW 17 20 9 11 1011.7 - 1.4
17/06:00am 8.5 4.9 6.8 89 0.8 W 15 19 8 10 1011.7 1011.7 1.4
17/05:30am 8.5 4.5 6.6 88 0.9 W 17 19 9 10 1011.5 - 1.4
17/05:00am 8.0 4.4 6.7 91 0.6 WSW 15 17 8 9 1011.5 - 1.4
17/04:30am 7.7 5.2 6.6 93 0.5 W 9 13 5 7 1011.3 - 1.2
17/04:00am 8.1 6.0 6.8 91 0.6 S 7 9 4 5 1011.2 - 1.2
17/03:30am 8.6 5.5 7.3 91 0.6 W 13 22 7 12 1011.2 - 1.2
17/03:00am 9.1 5.3 7.4 89 0.8 W 17 20 9 11 1011.3 1011.3 1.2
17/02:30am 9.5 5.4 8.0 90 0.7 W 19 22 10 12 1011.5 - 1.2
17/02:00am 10.0 6.6 9.0 93 0.5 W 17 20 9 11 1011.6 - 1.2
17/01:50am 10.1 6.6 8.9 92 0.6 W 17 24 9 13 1011.7 - 1.2
17/01:39am 10.3 5.8 8.7 90 0.8 W 22 30 12 16 1011.8 - 0.8
17/01:30am 10.4 5.2 8.8 90 0.8 W 26 35 14 19 1011.8 - 0.8
17/01:00am 10.7 6.3 8.9 89 0.9 W 22 30 12 16 1011.9 - 0.6
17/12:30am 10.5 6.1 8.9 90 0.8 W 22 28 12 15 1011.9 - 0.6
17/12:00am 10.4 7.0 9.0 91 0.7 W 17 24 9 13 1011.9 1011.9 0.6
 
Date/Time
EST
Temp
°C
App
Temp
°C
Dew
Point
Rel
Hum
%
Delta-T
°C
Wind Press
QNH
hPa
Press
MSL
hPa
Rain
since 9 am
mm
Dir
 
Spd
km/h
Gust
km/h
Spd
kts
Gust
kts
16/11:30pm 10.8 7.4 9.2 90 0.8 W 17 24 9 13 1012.0 - 0.6
16/11:00pm 11.1 7.8 9.5 90 0.8 W 17 26 9 14 1012.0 - 0.6
16/10:30pm 11.5 6.5 9.5 87 1.0 W 26 33 14 18 1011.9 - 0.6
16/10:00pm 12.1 6.9 8.9 81 1.6 W 26 35 14 19 1011.6 - 0.0
16/09:30pm 12.1 5.8 9.1 82 1.5 W 32 43 17 23 1011.2 - 0.0
16/09:00pm 12.1 5.5 8.7 80 1.7 W 33 44 18 24 1010.8 1010.8 0.0
16/08:30pm 12.2 5.8 9.2 82 1.5 W 33 43 18 23 1010.4 - 0.0
16/08:00pm 12.2 5.8 9.2 82 1.5 W 33 41 18 22 1010.2 - 0.0
16/07:30pm 12.5 7.5 9.5 82 1.5 WNW 26 33 14 18 1010.0 - 0.0
16/07:00pm 13.2 7.7 9.3 77 2.0 W 28 37 15 20 1009.8 - 0.0
16/06:30pm 12.9 9.3 10.0 82 1.5 W 19 28 10 15 1009.4 - 0.0
16/06:00pm 13.0 8.6 10.3 84 1.4 SW 24 33 13 18 1009.2 1009.2 0.0
16/05:30pm 14.5 10.7 11.1 80 1.8 W 22 30 12 16 1008.5 - 0.0
16/05:00pm 14.6 9.9 10.8 78 2.0 W 26 37 14 20 1008.1 - 0.0
16/04:30pm 15.0 10.1 11.3 78 2.0 W 28 43 15 23 1007.7 - 0.0
16/04:00pm 14.9 9.9 10.9 77 2.1 W 28 43 15 23 1007.5 - 0.0
16/03:30pm 15.3 9.9 11.0 75 2.3 W 30 43 16 23 1007.2 - 0.0
16/03:00pm 15.6 - 10.9 73 2.5 - - - - - - - 0.0
16/02:30pm 16.2 10.9 11.2 72 2.7 W 30 41 16 22 1006.3 - 0.0
16/02:00pm 16.3 11.1 11.7 74 2.5 W 30 39 16 21 1006.5 - 0.0
16/01:30pm 17.6 14.7 12.2 70 3.0 WSW 19 26 10 14 1006.4 - 0.0
16/01:00pm 17.4 14.5 12.3 72 2.8 W 19 24 10 13 1006.6 - 0.0
16/12:30pm 16.9 14.6 13.0 78 2.2 WSW 17 20 9 11 1007.1 - 0.0
16/12:00pm 16.7 16.2 12.5 76 2.3 S 7 13 4 7 1007.5 1007.5 0.0
16/11:30am 16.0 15.8 11.8 76 2.3 SW 4 7 2 4 1007.8 - 0.0
16/11:00am 15.8 15.3 12.1 78 2.0 S 6 9 3 5 1007.9 - 0.0
16/10:30am 15.0 14.4 11.7 80 1.8 SSE 6 9 3 5 1008.2 - 0.0
16/10:00am 13.9 13.3 11.7 86 1.2 NE 6 7 3 4 1008.4 - 0.0
16/09:30am 13.7 12.8 11.4 86 1.2 NNE 7 11 4 6 1008.7 - 0.0
16/09:00am 13.3 12.2 11.8 91 0.8 WNW 9 11 5 6 1008.8 1008.8 1.4
16/08:30am 13.0 12.1 11.5 91 0.8 N 7 11 4 6 1008.9 - 1.4
16/08:00am 13.2 13.4 11.7 91 0.8 ENE 2 6 1 3 1009.0 - 1.4
16/07:30am 12.8 13.3 11.7 93 0.6 CALM 0 0 0 0 1008.9 - 1.2
16/07:00am 12.8 13.4 11.9 94 0.5 CALM 0 0 0 0 1009.1 - 1.2
16/06:47am 12.7 12.1 11.6 93 0.6 ENE 6 9 3 5 1008.9 - 1.2
16/06:30am 12.6 11.3 11.3 92 0.7 ENE 9 11 5 6 1008.8 - 1.2
16/06:00am 12.6 10.1 11.1 91 0.8 E 15 20 8 11 1008.8 1008.8 1.2
16/05:30am 12.2 11.2 10.9 92 0.7 S 7 11 4 6 1009.0 - 1.2
16/05:00am 12.1 10.7 10.8 92 0.7 S 9 11 5 6 1009.0 - 1.2
16/04:30am 12.5 8.6 10.8 89 0.9 ENE 22 32 12 17 1008.8 - 1.2
16/04:00am 12.1 7.4 10.8 92 0.7 E 26 33 14 18 1008.2 - 1.2
16/03:30am 11.9 10.4 10.7 92 0.6 ENE 9 15 5 8 1009.6 - 1.0
16/03:00am 12.2 11.2 10.9 92 0.7 N 7 15 4 8 1009.8 1009.8 1.0
16/02:30am 12.1 9.5 10.8 92 0.7 ENE 15 20 8 11 1009.7 - 1.0
16/02:00am 12.0 8.4 10.6 91 0.7 E 20 28 11 15 1009.7 - 1.0
16/01:30am 11.3 8.6 10.5 95 0.4 ENE 15 19 8 10 1010.6 - 1.0
16/01:00am 11.4 9.1 10.6 95 0.4 ENE 13 15 7 8 1011.5 - 1.0
16/12:30am 12.1 9.6 11.1 94 0.5 E 15 19 8 10 1012.0 - 1.0
16/12:00am 12.3 10.2 11.2 93 0.6 E 13 15 7 8 1012.3 1012.3 1.0
 
Date/Time
EST
Temp
°C
App
Temp
°C
Dew
Point
Rel
Hum
%
Delta-T
°C
Wind Press
QNH
hPa
Press
MSL
hPa
Rain
since 9 am
mm
Dir
 
Spd
km/h
Gust
km/h
Spd
kts
Gust
kts
15/11:30pm 12.2 9.4 11.2 94 0.5 E 17 20 9 11 1012.4 - 1.0
15/11:00pm 12.6 9.4 11.3 92 0.7 ENE 19 24 10 13 1012.6 - 1.0
15/10:48pm 12.7 8.9 11.2 91 0.8 ENE 22 28 12 15 1012.7 - 1.0
15/10:30pm 12.7 8.5 11.2 91 0.8 ENE 24 32 13 17 1012.8 - 1.0
15/10:00pm 12.6 7.6 11.1 91 0.8 E 28 37 15 20 1013.0 - 1.0
15/09:30pm 12.4 7.0 10.9 90 0.8 E 30 37 16 20 1013.6 - 1.0
15/09:27pm 12.5 7.1 10.8 89 0.9 E 30 37 16 20 1013.6 - 1.0
15/09:00pm 12.3 7.1 10.4 88 1.0 E 28 37 15 20 1013.7 1013.7 1.0
15/08:30pm 12.3 6.8 10.4 88 1.0 E 30 39 16 21 1013.8 - 1.0
15/08:00pm 12.0 6.8 10.4 90 0.8 E 28 37 15 20 1014.0 - 1.0
15/07:30pm 12.1 8.0 10.2 88 1.0 E 22 30 12 16 1014.7 - 1.0
15/07:00pm 12.1 7.8 10.6 90 0.8 E 24 28 13 15 1014.6 - 0.8
15/06:30pm 12.2 8.5 10.3 88 1.0 ESE 20 24 11 13 1014.4 - 0.8
15/06:00pm 12.3 8.9 10.4 88 1.0 E 19 20 10 11 1014.6 1014.6 0.8
15/05:30pm 12.6 9.4 10.1 85 1.3 ESE 17 22 9 12 1014.6 - 0.4
15/05:00pm 13.2 8.9 9.3 77 2.0 E 22 28 12 15 1014.0 - 0.0
15/04:30pm 13.5 8.9 9.6 77 2.0 ESE 24 30 13 16 1013.8 - 0.0
15/04:00pm 13.5 9.6 9.6 77 2.0 E 20 28 11 15 1013.9 - 0.0
15/03:30pm 13.7 9.1 9.8 77 2.0 E 24 30 13 16 1013.8 - 0.0
15/03:00pm 14.8 10.1 10.6 76 2.2 E 26 32 14 17 1013.9 1013.9 0.0
15/02:30pm 14.1 9.6 10.0 76 2.1 E 24 32 13 17 1014.2 - 0.0
15/02:00pm 14.8 10.4 10.4 75 2.3 E 24 30 13 16 1014.5 - 0.0
15/01:30pm 14.3 10.1 9.9 75 2.3 E 22 28 12 15 1014.8 - 0.0
15/01:00pm 14.3 10.3 10.3 77 2.1 ESE 22 28 12 15 1015.2 - 0.0
15/12:30pm 14.2 10.2 10.4 78 2.0 E 22 28 12 15 1015.6 - 0.0
15/12:00pm 13.3 9.7 10.0 80 1.7 E 19 22 10 12 1016.0 1016.0 0.0
15/11:30am 13.0 10.8 10.7 86 1.2 ENE 13 17 7 9 1016.6 - 0.0
15/11:00am 11.8 10.3 9.2 84 1.3 E 7 9 4 5 1017.2 - 0.0
15/10:30am 11.3 10.8 9.5 89 0.9 S 2 6 1 3 1017.5 - 0.0
15/10:00am 10.7 9.2 9.1 90 0.8 ESE 7 9 4 5 1017.7 - 0.0
15/09:30am 10.7 9.3 8.9 89 0.9 ENE 6 7 3 4 1017.8 - 0.0
15/09:00am 10.4 9.4 8.8 90 0.8 ENE 4 7 2 4 1018.1 1018.1 0.0
15/08:30am 9.5 8.0 8.3 92 0.6 NNW 6 7 3 4 1018.4 - 0.0
15/08:00am 7.3 5.3 6.9 97 0.2 N 7 7 4 4 1018.4 - 0.0
15/07:47am 7.2 6.4 6.3 94 0.4 CALM 0 0 0 0 1018.3 - 0.0
15/07:30am 6.4 5.4 5.5 94 0.4 CALM 0 4 0 2 1018.3 - 0.0
15/07:00am 5.1 3.9 4.6 97 0.2 CALM 0 0 0 0 1018.1 - 0.0
15/06:30am 4.6 3.4 4.4 99 0.1 CALM 0 0 0 0 1018.0 - 0.0
15/06:00am 5.0 2.5 4.5 97 0.2 SSW 7 9 4 5 1017.7 1017.7 0.0
15/05:30am 4.1 1.4 3.9 99 0.1 WNW 7 9 4 5 1017.4 - 0.0
15/05:13am 4.3 1.6 3.8 97 0.2 WNW 7 9 4 5 1017.5 - 0.0
15/05:00am 4.3 1.7 4.1 99 0.1 WNW 7 7 4 4 1017.5 - 0.0
15/04:30am 4.8 2.3 4.6 99 0.1 NW 7 9 4 5 1017.5 - 0.0
15/04:15am 4.9 2.5 4.4 97 0.2 WNW 6 9 3 5 1017.6 - 0.0
15/04:00am 4.9 2.6 4.7 99 0.1 WNW 6 7 3 4 1017.6 - 0.0
15/03:48am 5.5 3.0 5.0 97 0.2 WNW 7 9 4 5 1017.7 - 0.0
15/03:35am 5.0 2.5 5.0 100 0.0 WNW 7 9 4 5 1017.8 - 0.0
15/03:30am 5.3 2.5 5.1 99 0.1 WNW 9 11 5 6 1017.9 - 0.0
15/03:00am 5.7 2.9 5.2 97 0.2 NW 9 11 5 6 1017.9 1017.9 0.0
15/02:30am 6.2 3.0 5.3 94 0.4 NW 11 11 6 6 1018.2 - 0.0
15/02:00am 6.8 4.2 6.1 95 0.3 WNW 9 11 5 6 1018.6 - 0.0
15/01:30am 7.0 4.6 6.8 99 0.1 WNW 9 9 5 5 1018.8 - 0.0
15/01:00am 7.2 4.8 6.8 97 0.2 NNW 9 13 5 7 1019.1 - 0.0
15/12:30am 5.9 3.6 5.7 99 0.1 W 7 9 4 5 1019.4 - 0.0
15/12:00am 7.6 5.6 7.0 96 0.3 WNW 7 7 4 4 1019.4 1019.4 0.0
 
Date/Time
EST
Temp
°C
App
Temp
°C
Dew
Point
Rel
Hum
%
Delta-T
°C
Wind Press
QNH
hPa
Press
MSL
hPa
Rain
since 9 am
mm
Dir
 
Spd
km/h
Gust
km/h
Spd
kts
Gust
kts
14/11:30pm 7.6 5.7 6.7 94 0.4 WNW 6 7 3 4 1019.6 - 0.0
14/11:00pm 7.4 4.8 6.3 93 0.5 NNW 9 11 5 6 1019.7 - 0.0
14/10:30pm 8.2 6.2 7.1 93 0.5 NNW 7 11 4 6 1019.9 - 0.0
14/10:00pm 6.9 5.3 6.2 95 0.3 N 4 9 2 5 1020.1 - 0.0
14/09:30pm 8.0 6.1 6.9 93 0.5 NE 6 6 3 3 1020.2 - 0.0
14/09:00pm 8.5 6.6 7.4 93 0.5 NNE 7 9 4 5 1020.2 1020.2 0.0
14/08:30pm 9.3 7.0 7.6 89 0.8 NNE 9 13 5 7 1020.0 - 0.0
14/08:00pm 10.8 8.4 8.6 86 1.1 NE 11 11 6 6 1019.8 - 0.0
14/07:30pm 10.5 8.0 8.2 86 1.1 NE 11 13 6 7 1019.5 - 0.0
14/07:00pm 11.4 9.0 8.8 84 1.3 NE 11 15 6 8 1019.3 - 0.0
14/06:30pm 12.1 9.4 8.9 81 1.6 NNE 13 19 7 10 1019.0 - 0.0
14/06:00pm 13.3 10.7 9.2 76 2.1 NNE 13 17 7 9 1018.7 1018.7 0.0
14/05:30pm 14.5 11.7 9.9 74 2.4 NE 15 19 8 10 1018.6 - 0.0
14/05:00pm 16.6 14.2 10.2 66 3.4 E 13 22 7 12 1018.4 - 0.0
14/04:30pm 16.9 13.9 9.2 60 4.0 ESE 15 19 8 10 1018.2 - 0.0
14/04:00pm 17.1 14.3 8.5 57 4.4 E 13 15 7 8 1018.1 - 0.0
14/03:30pm 17.1 13.9 8.5 57 4.4 ESE 15 20 8 11 1018.3 - 0.0

Other Formats:

Comma delimited format used in spreadsheet applications
http://www.bom.gov.au/fwo/IDV60801/IDV60801.94907.axf

JavaScript Object Notation format (JSON) in row-major order
http://www.bom.gov.au/fwo/IDV60801/IDV60801.94907.json